Time;durP1;ratioP1;P1;durP2;ratioP2;P2;SDS_P1;SDS_P2;PMS_P1;PMS_P2;Temp;Humidity;BMP_temperature;BMP_pressure;BME280_temperature;BME280_humidity;BME280_pressure;Samples;Min_cycle;Max_cycle;Signal;HPM_P1;HPM_P2
2023/08/08 00:00:53;;;;;;;0.93;0.93;;;12.70;99.40;;;;;;4196943;28;20071;-56
2023/08/08 00:03:14;;;;;;;1.00;1.00;;;12.70;99.90;;;;;;4195488;28;20056;-56
2023/08/08 00:05:34;;;;;;;1.75;1.00;;;12.70;99.90;;;;;;4198932;28;20060;-55
2023/08/08 00:07:53;;;;;;;2.25;1.20;;;12.80;99.90;;;;;;4198416;28;20039;-56
2023/08/08 00:10:13;;;;;;;1.25;1.15;;;12.70;99.10;;;;;;4198176;28;20083;-56
2023/08/08 00:12:33;;;;;;;3.88;1.05;;;12.60;99.90;;;;;;4197440;28;20359;-55
2023/08/08 00:14:53;;;;;;;1.20;1.20;;;12.60;99.90;;;;;;4197434;28;20120;-55
2023/08/08 00:17:14;;;;;;;1.27;1.27;;;12.50;99.90;;;;;;4197519;28;20046;-55
2023/08/08 00:19:34;;;;;;;1.10;1.10;;;12.40;99.90;;;;;;4196209;28;20103;-56
2023/08/08 00:21:54;;;;;;;1.10;1.10;;;12.40;99.90;;;;;;4197175;28;20082;-55
2023/08/08 00:24:14;;;;;;;1.60;1.10;;;12.30;99.90;;;;;;4201604;28;20407;-55
2023/08/08 00:26:34;;;;;;;1.05;1.05;;;12.20;99.90;;;;;;4189633;28;20068;-55
2023/08/08 00:28:54;;;;;;;1.00;1.00;;;12.30;99.90;;;;;;4197719;28;20094;-56
2023/08/08 00:31:16;;;;;;;1.10;1.10;;;12.10;99.90;;;;;;4195316;28;20047;-56
2023/08/08 00:33:36;;;;;;;1.20;1.20;;;11.80;99.90;;;;;;4196542;28;20048;-55
2023/08/08 00:35:56;;;;;;;1.20;1.20;;;11.70;99.90;;;;;;4197333;28;20052;-56
2023/08/08 00:38:18;;;;;;;1.30;1.30;;;11.80;99.90;;;;;;4197998;28;20052;-56
2023/08/08 00:40:38;;;;;;;1.20;1.20;;;11.70;99.90;;;;;;4197563;28;20062;-55
2023/08/08 00:42:57;;;;;;;1.42;1.42;;;11.60;99.90;;;;;;4195899;28;20048;-56
2023/08/08 00:45:17;;;;;;;1.10;1.10;;;11.50;99.90;;;;;;4196986;28;20075;-56
2023/08/08 00:47:37;;;;;;;1.10;1.10;;;11.40;99.90;;;;;;4199200;28;20232;-55
2023/08/08 00:49:57;;;;;;;1.40;1.30;;;11.40;99.90;;;;;;4193004;28;20044;-55
2023/08/08 00:52:16;;;;;;;1.40;1.40;;;11.30;99.90;;;;;;4193738;28;20052;-56
2023/08/08 00:54:36;;;;;;;1.60;1.50;;;11.10;99.90;;;;;;4197047;28;20270;-56
2023/08/08 00:56:56;;;;;;;1.42;1.42;;;11.00;99.90;;;;;;4201798;28;20052;-55
2023/08/08 00:59:19;;;;;;;1.33;1.33;;;11.00;99.90;;;;;;4197936;28;20087;-56
2023/08/08 01:04:00;;;;;;;1.33;1.33;;;11.40;99.90;;;;;;4133991;28;20426;-57
2023/08/08 01:06:32;;;;;;;1.10;1.10;;;11.50;99.90;;;;;;4126347;28;20052;-56
2023/08/08 01:09:09;;;;;;;1.30;1.30;;;11.50;99.90;;;;;;4136843;28;20116;-56
2023/08/08 01:11:33;;;;;;;1.33;1.33;;;11.30;99.90;;;;;;4137444;28;20049;-57
2023/08/08 01:13:54;;;;;;;3.15;1.63;;;11.10;99.90;;;;;;4134415;28;20065;-56
2023/08/08 01:16:15;;;;;;;1.60;1.38;;;11.00;99.90;;;;;;4134834;28;20046;-57
2023/08/08 01:18:37;;;;;;;2.63;2.35;;;10.90;99.90;;;;;;4132114;28;20053;-57
2023/08/08 01:20:57;;;;;;;1.85;1.85;;;10.80;99.90;;;;;;4133959;28;20375;-57
2023/08/08 01:23:42;;;;;;;1.55;1.55;;;10.80;99.90;;;;;;4132690;28;20057;-56
2023/08/08 01:26:03;;;;;;;1.45;1.40;;;11.10;99.90;;;;;;4127143;28;20364;-57
2023/08/08 01:28:23;;;;;;;1.33;1.30;;;11.10;99.90;;;;;;4133163;28;20069;-57
2023/08/08 01:30:43;;;;;;;1.55;1.42;;;11.20;99.90;;;;;;4135817;28;20253;-56
2023/08/08 01:33:06;;;;;;;1.20;1.20;;;11.20;99.90;;;;;;4134987;28;20048;-56
2023/08/08 01:35:33;;;;;;;1.25;1.25;;;11.20;99.90;;;;;;4130998;28;20054;-56
2023/08/08 01:37:59;;;;;;;1.42;1.20;;;11.10;99.90;;;;;;4134126;28;20110;-57
2023/08/08 01:40:20;;;;;;;1.25;1.25;;;11.20;99.90;;;;;;4135845;28;20069;-56
2023/08/08 01:42:41;;;;;;;1.50;1.50;;;11.10;99.90;;;;;;4134013;28;20053;-56
2023/08/08 01:45:02;;;;;;;5.85;1.60;;;11.10;99.90;;;;;;4135404;28;21187;-56
2023/08/08 01:47:22;;;;;;;1.75;1.73;;;11.20;99.90;;;;;;4135172;28;20077;-57
2023/08/08 01:49:43;;;;;;;1.17;1.17;;;11.20;99.90;;;;;;4133899;28;20229;-57
2023/08/08 01:52:02;;;;;;;1.20;1.20;;;11.20;99.90;;;;;;4132489;28;20241;-57
2023/08/08 01:54:23;;;;;;;1.27;1.27;;;11.30;99.90;;;;;;4133514;28;20049;-57
2023/08/08 01:56:42;;;;;;;1.40;1.40;;;11.30;99.90;;;;;;4134645;28;20058;-57
2023/08/08 01:59:02;;;;;;;1.42;1.35;;;11.10;99.90;;;;;;4133507;28;20053;-56
2023/08/08 02:01:23;;;;;;;1.38;1.38;;;11.00;99.90;;;;;;4136199;28;20142;-56
2023/08/08 02:03:43;;;;;;;1.30;1.30;;;11.00;99.90;;;;;;4123351;28;20049;-56
2023/08/08 02:06:03;;;;;;;1.45;1.45;;;10.90;99.90;;;;;;4137633;28;20050;-57
2023/08/08 02:08:23;;;;;;;1.70;1.70;;;10.70;99.90;;;;;;4136204;28;20076;-57
2023/08/08 02:10:42;;;;;;;1.42;1.42;;;10.70;99.90;;;;;;4136475;28;20241;-57
2023/08/08 02:13:03;;;;;;;1.90;1.90;;;10.80;99.90;;;;;;4139002;28;20053;-57
2023/08/08 02:15:23;;;;;;;1.67;1.55;;;10.80;99.90;;;;;;4131882;28;20102;-56
2023/08/08 02:17:43;;;;;;;1.75;1.65;;;10.60;99.90;;;;;;4134472;28;20375;-56
2023/08/08 02:20:03;;;;;;;1.55;1.45;;;10.50;99.90;;;;;;4135652;28;20085;-56
2023/08/08 02:22:24;;;;;;;1.65;1.65;;;10.60;99.90;;;;;;4135777;28;20368;-57
2023/08/08 02:24:44;;;;;;;1.42;1.42;;;10.70;99.90;;;;;;4135480;28;20085;-57
2023/08/08 02:27:04;;;;;;;1.50;1.50;;;10.80;99.90;;;;;;4135053;28;20057;-57
2023/08/08 02:29:24;;;;;;;2.03;1.90;;;10.50;99.90;;;;;;4137779;28;20050;-57
2023/08/08 02:31:44;;;;;;;2.00;2.00;;;10.30;99.90;;;;;;4133944;28;20241;-56
2023/08/08 02:34:04;;;;;;;1.92;1.92;;;10.20;99.90;;;;;;4135627;28;20054;-56
2023/08/08 02:36:24;;;;;;;1.83;1.83;;;10.00;99.90;;;;;;4135937;28;20053;-57
2023/08/08 02:38:45;;;;;;;1.90;1.90;;;10.20;99.90;;;;;;4136590;28;20061;-57
2023/08/08 02:41:05;;;;;;;3.25;1.83;;;10.30;99.90;;;;;;4136351;28;20052;-56
2023/08/08 02:43:24;;;;;;;2.40;1.83;;;10.30;99.90;;;;;;4135629;28;20069;-57
2023/08/08 02:45:44;;;;;;;2.05;1.65;;;10.20;99.90;;;;;;4137590;28;20054;-57
2023/08/08 02:48:05;;;;;;;2.92;2.85;;;9.90;99.90;;;;;;4136803;28;20053;-56
2023/08/08 02:50:25;;;;;;;3.28;3.28;;;9.70;99.90;;;;;;4133750;28;20045;-57
2023/08/08 02:52:45;;;;;;;4.97;4.97;;;9.50;99.90;;;;;;4136044;28;20171;-57
2023/08/08 02:55:05;;;;;;;3.47;3.47;;;9.70;99.90;;;;;;4136768;28;20053;-56
2023/08/08 02:57:25;;;;;;;2.65;2.65;;;9.90;99.90;;;;;;4134628;28;20160;-56
2023/08/08 02:59:45;;;;;;;2.92;2.92;;;10.00;99.90;;;;;;4134972;28;20057;-57
2023/08/08 03:02:05;;;;;;;3.08;3.08;;;9.90;99.90;;;;;;4135108;28;20089;-56
2023/08/08 03:04:25;;;;;;;4.85;4.65;;;9.70;99.90;;;;;;4138156;28;20081;-56
2023/08/08 03:06:45;;;;;;;6.10;6.00;;;9.50;99.90;;;;;;4135697;28;20245;-57
2023/08/08 03:09:05;;;;;;;5.70;5.60;;;9.50;99.90;;;;;;4136383;28;20142;-56
2023/08/08 03:11:25;;;;;;;2.60;2.50;;;9.70;99.90;;;;;;4135093;28;20054;-57
2023/08/08 03:13:45;;;;;;;3.95;3.95;;;9.80;99.90;;;;;;4133437;28;20117;-57
2023/08/08 03:16:05;;;;;;;3.78;3.60;;;9.70;99.90;;;;;;4133617;28;20042;-57
2023/08/08 03:18:25;;;;;;;2.75;2.75;;;9.90;99.90;;;;;;4136501;28;20050;-56
2023/08/08 03:20:46;;;;;;;2.47;2.47;;;10.10;99.90;;;;;;4137102;28;20049;-56
2023/08/08 03:23:05;;;;;;;1.88;1.88;;;10.20;99.90;;;;;;4135017;28;20053;-56
2023/08/08 03:25:24;;;;;;;2.38;2.38;;;10.20;99.90;;;;;;4134422;28;20113;-57
2023/08/08 03:27:44;;;;;;;2.03;2.03;;;10.30;99.90;;;;;;4137741;28;20050;-56
2023/08/08 03:30:05;;;;;;;3.20;2.03;;;10.10;99.90;;;;;;4135986;28;20245;-56
2023/08/08 03:32:25;;;;;;;1.77;1.77;;;10.00;99.90;;;;;;4136808;28;20371;-57
2023/08/08 03:34:45;;;;;;;2.22;2.15;;;10.00;99.90;;;;;;4138563;28;20089;-57
2023/08/08 03:37:05;;;;;;;3.60;3.47;;;9.80;99.90;;;;;;4135549;28;20049;-57
2023/08/08 03:39:26;;;;;;;6.13;6.03;;;9.60;99.90;;;;;;4136276;28;20380;-57
2023/08/08 03:41:46;;;;;;;5.88;5.78;;;9.40;99.90;;;;;;4135279;28;20295;-57
2023/08/08 03:44:06;;;;;;;4.63;4.63;;;9.30;99.90;;;;;;4136172;28;20084;-56
2023/08/08 03:46:27;;;;;;;5.78;5.78;;;9.50;99.90;;;;;;4134676;28;20053;-57
2023/08/08 03:48:47;;;;;;;7.30;7.20;;;9.50;99.90;;;;;;4131999;28;20097;-56
2023/08/08 03:51:07;;;;;;;5.38;5.38;;;9.60;99.90;;;;;;4136286;28;20245;-56
2023/08/08 03:53:26;;;;;;;4.20;4.20;;;9.70;99.90;;;;;;4134990;28;20069;-57
2023/08/08 03:55:47;;;;;;;6.63;6.43;;;9.70;99.90;;;;;;4133306;28;20250;-56
2023/08/08 03:58:06;;;;;;;6.03;6.03;;;9.60;99.90;;;;;;4133241;28;20081;-57
2023/08/08 04:00:27;;;;;;;5.70;5.60;;;9.70;99.90;;;;;;4134690;28;20089;-56
2023/08/08 04:02:46;;;;;;;6.72;6.72;;;9.40;99.90;;;;;;4124284;28;20110;-57
2023/08/08 04:05:06;;;;;;;6.85;6.57;;;9.20;99.90;;;;;;4134829;28;20233;-56
2023/08/08 04:07:26;;;;;;;7.20;7.10;;;9.00;99.90;;;;;;4133711;28;20054;-56
2023/08/08 04:09:46;;;;;;;6.90;6.90;;;9.10;99.90;;;;;;4137587;28;20045;-56
2023/08/08 04:12:06;;;;;;;7.22;7.13;;;9.30;99.90;;;;;;4135658;28;20061;-56
2023/08/08 04:14:26;;;;;;;8.50;8.40;;;9.30;99.90;;;;;;4133327;28;20053;-57
2023/08/08 04:16:46;;;;;;;6.68;6.57;;;9.50;99.90;;;;;;4135425;28;20045;-57
2023/08/08 04:19:06;;;;;;;5.93;5.82;;;9.60;99.90;;;;;;4134281;28;20086;-57
2023/08/08 04:21:28;;;;;;;7.07;6.88;;;9.40;99.90;;;;;;4128249;28;20041;-57
2023/08/08 04:23:48;;;;;;;6.43;6.23;;;9.30;99.90;;;;;;4132739;28;20045;-56
2023/08/08 04:26:08;;;;;;;6.57;6.47;;;9.20;99.90;;;;;;4134364;28;20245;-57
2023/08/08 04:28:27;;;;;;;7.07;6.72;;;9.40;99.90;;;;;;4136682;28;20092;-56
2023/08/08 04:30:47;;;;;;;5.50;5.40;;;9.30;99.90;;;;;;4134608;28;20073;-56
2023/08/08 04:33:07;;;;;;;4.65;4.65;;;9.50;99.90;;;;;;4133617;28;20050;-57
2023/08/08 04:35:27;;;;;;;6.03;6.00;;;9.40;99.90;;;;;;4136756;28;20081;-57
2023/08/08 04:37:47;;;;;;;3.38;3.38;;;9.40;99.90;;;;;;4134483;28;20412;-56
2023/08/08 04:40:08;;;;;;;5.07;4.82;;;9.30;99.90;;;;;;4134643;28;20099;-57
2023/08/08 04:42:28;;;;;;;3.58;3.50;;;9.30;99.90;;;;;;4135521;28;20076;-57
2023/08/08 04:44:47;;;;;;;4.95;4.95;;;9.30;99.90;;;;;;4136142;28;20050;-56
2023/08/08 04:47:07;;;;;;;5.55;5.55;;;9.40;99.90;;;;;;4134068;28;20054;-56
2023/08/08 04:49:28;;;;;;;6.28;6.18;;;9.40;99.90;;;;;;4133949;28;20046;-56
2023/08/08 04:51:48;;;;;;;7.85;7.75;;;9.30;99.90;;;;;;4136414;28;20391;-57
2023/08/08 04:54:08;;;;;;;6.30;6.05;;;9.30;99.90;;;;;;4134382;28;20064;-57
2023/08/08 04:56:28;;;;;;;7.13;6.93;;;9.40;99.90;;;;;;4131621;28;20081;-57
2023/08/08 04:58:49;;;;;;;7.55;7.35;;;9.20;99.90;;;;;;4137422;28;20237;-56
2023/08/08 05:01:14;;;;;;;7.00;6.90;;;9.10;99.90;;;;;;4135811;28;20049;-57
2023/08/08 05:03:34;;;;;;;7.45;7.35;;;9.10;99.90;;;;;;4131698;28;20049;-57
2023/08/08 05:05:54;;;;;;;7.63;7.53;;;9.20;99.90;;;;;;4134950;28;20044;-57
2023/08/08 05:08:14;;;;;;;5.93;5.78;;;9.20;99.90;;;;;;4134931;28;20426;-56
2023/08/08 05:10:34;;;;;;;7.15;6.80;;;9.50;99.90;;;;;;4133646;28;20128;-56
2023/08/08 05:12:54;;;;;;;5.38;5.28;;;9.50;99.90;;;;;;4131961;28;20066;-57
2023/08/08 05:15:14;;;;;;;4.93;4.82;;;9.60;99.90;;;;;;4134266;28;20049;-56
2023/08/08 05:17:34;;;;;;;6.72;6.53;;;9.50;99.90;;;;;;4134282;28;20046;-56
2023/08/08 05:19:54;;;;;;;8.98;8.50;;;9.40;99.90;;;;;;4129953;28;20089;-56
2023/08/08 05:22:14;;;;;;;8.55;8.35;;;9.30;99.90;;;;;;4137232;28;20065;-56
2023/08/08 05:24:35;;;;;;;9.45;9.35;;;9.30;99.90;;;;;;4135698;28;20085;-56
2023/08/08 05:26:55;;;;;;;9.75;9.65;;;9.30;99.90;;;;;;4139901;28;20065;-56
2023/08/08 05:29:15;;;;;;;8.77;8.43;;;9.30;99.90;;;;;;4133522;28;20121;-56
2023/08/08 05:31:36;;;;;;;7.80;7.50;;;9.30;99.90;;;;;;4130788;28;20077;-56
2023/08/08 05:33:56;;;;;;;7.78;7.63;;;9.30;99.90;;;;;;4137050;28;20407;-56
2023/08/08 05:36:15;;;;;;;8.00;7.63;;;9.40;99.90;;;;;;4133866;28;20076;-56
2023/08/08 05:38:36;;;;;;;8.32;5.10;;;9.60;99.90;;;;;;4132723;28;20073;-56
2023/08/08 05:40:56;;;;;;;4.03;4.00;;;9.70;99.90;;;;;;4134718;28;20072;-57
2023/08/08 05:43:18;;;;;;;2.67;2.67;;;9.70;99.90;;;;;;4135133;28;20054;-57
2023/08/08 05:45:38;;;;;;;3.08;3.03;;;9.80;99.90;;;;;;4132431;28;20125;-57
2023/08/08 05:48:00;;;;;;;2.35;2.30;;;9.90;99.90;;;;;;4132952;28;20096;-57
2023/08/08 05:50:20;;;;;;;1.75;1.75;;;10.00;99.90;;;;;;4135444;28;20163;-56
2023/08/08 05:52:40;;;;;;;1.23;1.23;;;10.00;99.90;;;;;;4133985;28;20229;-56
2023/08/08 05:55:00;;;;;;;6.63;1.50;;;10.10;99.90;;;;;;4133302;28;20077;-57
2023/08/08 05:57:21;;;;;;;1.05;1.05;;;10.20;99.90;;;;;;4133539;28;20102;-56
2023/08/08 05:59:41;;;;;;;1.30;1.30;;;10.40;99.90;;;;;;4135877;28;20077;-56
2023/08/08 06:02:01;;;;;;;1.27;1.27;;;10.60;99.90;;;;;;4133011;28;20042;-56
2023/08/08 06:04:21;;;;;;;1.27;1.27;;;10.80;99.90;;;;;;4131178;28;20053;-57
2023/08/08 06:06:41;;;;;;;1.33;1.33;;;10.90;99.90;;;;;;4135363;28;20061;-57
2023/08/08 06:09:01;;;;;;;1.00;1.00;;;11.00;99.90;;;;;;4132267;28;20433;-56
2023/08/08 06:11:21;;;;;;;1.15;1.15;;;11.10;99.90;;;;;;4132597;28;20105;-56
2023/08/08 06:13:41;;;;;;;1.50;1.50;;;11.10;99.90;;;;;;4132368;28;20093;-56
2023/08/08 06:16:06;;;;;;;1.20;1.20;;;11.40;99.90;;;;;;4134772;28;20053;-56
2023/08/08 06:18:26;;;;;;;1.38;1.27;;;11.60;99.90;;;;;;4132765;28;20230;-56
2023/08/08 06:20:46;;;;;;;1.20;1.20;;;11.70;99.90;;;;;;4131343;28;20472;-56
2023/08/08 06:23:07;;;;;;;1.80;1.00;;;11.70;99.90;;;;;;4134879;28;20052;-56
2023/08/08 06:25:27;;;;;;;1.20;1.20;;;11.80;99.90;;;;;;4134483;28;20267;-57
2023/08/08 06:27:47;;;;;;;2.17;1.65;;;11.90;99.90;;;;;;4133165;28;20097;-56
2023/08/08 06:30:09;;;;;;;1.08;1.08;;;12.20;99.90;;;;;;4136012;28;20054;-56
2023/08/08 06:32:30;;;;;;;3.90;1.20;;;13.00;99.90;;;;;;4134529;28;20046;-56
2023/08/08 06:34:49;;;;;;;1.92;1.20;;;13.00;99.90;;;;;;4132480;28;20053;-56
2023/08/08 06:37:09;;;;;;;1.27;1.27;;;13.30;99.90;;;;;;4129583;28;20085;-56
2023/08/08 06:39:29;;;;;;;1.25;1.00;;;13.40;99.90;;;;;;4133738;28;20054;-56
2023/08/08 06:41:49;;;;;;;1.00;1.00;;;14.00;99.90;;;;;;4132908;28;20249;-57
2023/08/08 06:44:10;;;;;;;2.15;1.10;;;14.40;99.90;;;;;;4130964;28;20046;-57
2023/08/08 06:46:30;;;;;;;5.05;1.25;;;14.20;99.90;;;;;;4135142;28;20382;-56
2023/08/08 06:48:52;;;;;;;2.20;1.30;;;14.20;99.90;;;;;;4137471;28;20367;-56
2023/08/08 06:51:13;;;;;;;1.58;1.00;;;14.20;99.90;;;;;;4134545;28;20283;-56
2023/08/08 06:53:33;;;;;;;1.00;1.00;;;14.30;99.90;;;;;;4139447;28;20046;-56
2023/08/08 06:55:52;;;;;;;1.30;1.30;;;14.40;99.90;;;;;;4134815;28;20074;-57
2023/08/08 06:58:12;;;;;;;1.10;1.10;;;14.60;99.90;;;;;;4137698;28;20290;-56
2023/08/08 07:00:31;;;;;;;2.30;1.30;;;15.10;99.90;;;;;;4135100;28;20049;-56
2023/08/08 07:02:52;;;;;;;1.13;1.13;;;15.10;99.90;;;;;;4135571;28;20065;-56
2023/08/08 07:05:12;;;;;;;1.05;1.00;;;15.20;99.90;;;;;;4138776;28;20102;-56
2023/08/08 07:07:33;;;;;;;0.93;0.93;;;15.20;99.90;;;;;;4135255;28;20053;-56
2023/08/08 07:09:53;;;;;;;1.05;1.00;;;15.20;99.90;;;;;;4133244;28;20085;-57
2023/08/08 07:12:13;;;;;;;0.90;0.90;;;15.80;99.90;;;;;;4134049;28;20102;-57
2023/08/08 07:14:32;;;;;;;0.80;0.80;;;15.90;99.00;;;;;;4136831;28;20057;-57
2023/08/08 07:16:53;;;;;;;2.35;0.85;;;16.00;98.30;;;;;;4134190;28;20054;-56
2023/08/08 07:19:12;;;;;;;1.00;1.00;;;16.00;97.80;;;;;;4134493;28;20049;-57
2023/08/08 07:21:33;;;;;;;3.70;1.00;;;16.00;97.50;;;;;;4134730;28;20041;-56
2023/08/08 07:23:52;;;;;;;0.80;0.80;;;16.10;97.20;;;;;;4135949;28;20050;-56
2023/08/08 07:26:12;;;;;;;1.45;0.80;;;16.60;97.00;;;;;;4135622;28;20049;-57
2023/08/08 07:28:32;;;;;;;0.90;0.90;;;16.60;95.80;;;;;;4134596;28;20053;-56
2023/08/08 07:30:52;;;;;;;2.28;0.90;;;16.70;96.30;;;;;;4136745;28;20049;-56
2023/08/08 07:33:13;;;;;;;1.60;1.10;;;16.80;95.30;;;;;;4136646;28;20049;-56
2023/08/08 07:35:33;;;;;;;7.68;0.90;;;17.10;95.00;;;;;;4130599;28;20054;-56
2023/08/08 07:37:53;;;;;;;1.30;0.80;;;17.30;94.20;;;;;;4136431;28;20376;-56
2023/08/08 07:40:17;;;;;;;0.85;0.80;;;17.60;95.20;;;;;;4136314;28;20080;-57
2023/08/08 07:42:37;;;;;;;0.80;0.80;;;17.90;95.30;;;;;;4136265;28;20417;-56
2023/08/08 07:44:57;;;;;;;1.50;0.80;;;18.20;95.10;;;;;;4133633;28;20081;-57
2023/08/08 07:47:16;;;;;;;0.70;0.70;;;18.40;94.20;;;;;;4137697;28;20089;-56
2023/08/08 07:49:37;;;;;;;0.95;0.80;;;18.50;94.10;;;;;;4134609;28;20146;-56
2023/08/08 07:51:56;;;;;;;0.95;0.80;;;18.70;93.10;;;;;;4133550;28;20046;-57
2023/08/08 07:54:16;;;;;;;1.63;0.70;;;19.00;92.60;;;;;;4138580;28;20049;-57
2023/08/08 07:56:36;;;;;;;0.90;0.90;;;19.00;92.40;;;;;;4136368;28;20041;-57
2023/08/08 07:58:56;;;;;;;0.80;0.80;;;19.00;93.60;;;;;;4130446;28;20139;-56
2023/08/08 08:01:18;;;;;;;1.65;0.90;;;19.30;92.90;;;;;;4135627;28;20390;-56
2023/08/08 08:03:38;;;;;;;0.85;0.70;;;19.40;93.20;;;;;;4135936;28;20061;-56
2023/08/08 08:05:58;;;;;;;0.70;0.70;;;19.90;92.90;;;;;;4133567;28;20096;-57
2023/08/08 08:08:18;;;;;;;0.70;0.70;;;19.90;91.80;;;;;;4132813;28;20106;-56
2023/08/08 08:10:38;;;;;;;1.65;0.70;;;20.20;92.00;;;;;;4134355;28;20116;-57
2023/08/08 08:12:58;;;;;;;0.70;0.70;;;20.20;91.30;;;;;;4136425;28;20289;-57
2023/08/08 08:15:17;;;;;;;1.20;0.60;;;20.30;88.30;;;;;;4133366;28;20054;-56
2023/08/08 08:17:38;;;;;;;0.70;0.70;;;20.20;86.30;;;;;;4139431;28;20050;-57
2023/08/08 08:19:58;;;;;;;0.70;0.70;;;20.50;85.00;;;;;;4135990;28;20049;-57
2023/08/08 08:22:18;;;;;;;0.70;0.70;;;20.70;85.10;;;;;;4137284;28;20073;-57
2023/08/08 08:24:38;;;;;;;0.70;0.70;;;21.00;86.70;;;;;;4130033;28;20045;-57
2023/08/08 08:26:58;;;;;;;0.88;0.75;;;21.20;82.80;;;;;;4131793;28;20054;-57
2023/08/08 08:29:17;;;;;;;0.60;0.60;;;21.50;84.20;;;;;;4134625;28;20114;-56
2023/08/08 08:31:38;;;;;;;0.60;0.60;;;21.60;85.00;;;;;;4135457;28;20088;-57
2023/08/08 08:33:57;;;;;;;0.68;0.63;;;21.90;84.80;;;;;;4133780;28;20391;-56
2023/08/08 08:36:18;;;;;;;1.65;0.90;;;21.70;85.60;;;;;;4135312;28;20049;-56
2023/08/08 08:38:38;;;;;;;0.82;0.60;;;22.00;86.50;;;;;;4134289;28;20070;-57
2023/08/08 08:40:58;;;;;;;0.63;0.63;;;22.50;87.30;;;;;;4131186;28;20054;-57
2023/08/08 08:43:18;;;;;;;0.60;0.60;;;22.70;86.70;;;;;;4133778;28;20101;-57
2023/08/08 08:45:39;;;;;;;1.17;0.63;;;23.00;83.20;;;;;;4133776;28;20049;-57
2023/08/08 08:48:00;;;;;;;0.60;0.60;;;23.20;83.90;;;;;;4134731;28;20053;-57
2023/08/08 08:50:22;;;;;;;0.55;0.55;;;23.30;82.60;;;;;;4134938;28;20050;-56
2023/08/08 08:52:43;;;;;;;0.60;0.60;;;23.70;84.50;;;;;;4133925;28;20053;-57
2023/08/08 08:55:04;;;;;;;1.27;0.60;;;23.90;83.90;;;;;;4135997;28;20044;-56
2023/08/08 08:57:24;;;;;;;0.60;0.60;;;23.70;80.90;;;;;;4134420;28;20241;-57
2023/08/08 08:59:44;;;;;;;2.20;0.60;;;23.60;81.00;;;;;;4132207;28;20049;-57
2023/08/08 09:02:04;;;;;;;0.95;0.60;;;23.80;78.90;;;;;;4135867;28;20088;-56
2023/08/08 09:04:24;;;;;;;0.73;0.60;;;24.20;76.50;;;;;;4132434;28;20089;-56
2023/08/08 09:06:44;;;;;;;0.50;0.50;;;24.10;77.40;;;;;;4134351;28;20084;-56
2023/08/08 09:09:04;;;;;;;0.57;0.57;;;24.40;76.00;;;;;;4132424;28;20057;-56
2023/08/08 09:11:36;;;;;;;0.50;0.50;;;24.40;74.10;;;;;;4135289;28;20108;-57
2023/08/08 09:13:56;;;;;;;0.52;0.52;;;24.70;74.90;;;;;;4134642;28;20324;-57
2023/08/08 09:16:16;;;;;;;0.50;0.50;;;25.00;75.20;;;;;;4132915;28;20089;-56
2023/08/08 09:18:39;;;;;;;1.13;0.40;;;25.20;76.00;;;;;;4136693;28;20409;-57
2023/08/08 09:20:59;;;;;;;0.50;0.50;;;25.30;69.90;;;;;;4135403;28;20058;-56
2023/08/08 09:23:20;;;;;;;0.52;0.50;;;25.70;72.60;;;;;;4130612;28;20049;-56
2023/08/08 09:25:41;;;;;;;0.50;0.50;;;26.00;72.30;;;;;;4136257;28;20413;-57
2023/08/08 09:28:00;;;;;;;0.50;0.50;;;25.60;66.00;;;;;;4135916;28;20237;-57
2023/08/08 09:30:21;;;;;;;0.47;0.47;;;25.70;71.60;;;;;;4134017;28;20053;-56
2023/08/08 09:32:43;;;;;;;0.50;0.50;;;26.10;69.10;;;;;;4131515;28;20052;-57
2023/08/08 09:35:07;;;;;;;0.50;0.50;;;26.00;66.70;;;;;;4133922;28;20069;-57
2023/08/08 09:37:28;;;;;;;0.50;0.50;;;26.40;69.40;;;;;;4134216;28;20237;-57
2023/08/08 09:40:00;;;;;;;0.50;0.50;;;26.10;65.80;;;;;;4130387;28;20376;-57
2023/08/08 09:42:20;;;;;;;4.63;0.70;;;26.40;62.50;;;;;;4135430;28;20057;-56
2023/08/08 09:44:42;;;;;;;1.75;0.90;;;26.50;67.20;;;;;;4133363;28;20157;-57
2023/08/08 09:47:02;;;;;;;0.50;0.50;;;26.60;60.40;;;;;;4134824;28;20057;-57
2023/08/08 09:49:23;;;;;;;0.40;0.40;;;26.50;55.40;;;;;;4135444;28;20253;-57
2023/08/08 09:51:43;;;;;;;0.45;0.45;;;26.80;55.50;;;;;;4134600;28;20041;-57
2023/08/08 09:54:06;;;;;;;0.40;0.40;;;26.90;56.60;;;;;;4120668;28;20121;-57
2023/08/08 09:56:26;;;;;;;0.40;0.40;;;27.00;54.70;;;;;;4133065;28;20098;-57
2023/08/08 09:58:47;;;;;;;0.40;0.40;;;26.50;56.40;;;;;;4132564;28;20085;-57
2023/08/08 10:01:07;;;;;;;0.40;0.40;;;26.80;57.80;;;;;;4135785;28;20046;-56
2023/08/08 10:03:28;;;;;;;0.40;0.40;;;26.20;57.90;;;;;;4134474;28;20120;-57
2023/08/08 10:05:48;;;;;;;0.40;0.40;;;26.70;59.60;;;;;;4130417;28;20091;-57
2023/08/08 10:08:08;;;;;;;0.40;0.40;;;27.00;59.20;;;;;;4133808;28;20049;-57
2023/08/08 10:10:30;;;;;;;0.40;0.40;;;27.70;62.20;;;;;;4133017;28;20054;-57
2023/08/08 10:12:50;;;;;;;0.40;0.40;;;27.90;53.80;;;;;;4133075;28;20237;-57
2023/08/08 10:15:11;;;;;;;0.40;0.40;;;27.80;52.50;;;;;;4132940;28;20053;-57
2023/08/08 10:17:38;;;;;;;0.40;0.40;;;27.60;52.80;;;;;;4134624;28;20053;-57
2023/08/08 10:20:02;;;;;;;0.40;0.40;;;28.10;53.20;;;;;;4133972;28;20049;-57
2023/08/08 10:22:23;;;;;;;0.40;0.40;;;28.50;55.90;;;;;;4136279;28;20052;-57
2023/08/08 10:24:48;;;;;;;0.40;0.40;;;28.40;53.80;;;;;;4134771;28;20080;-57
2023/08/08 10:27:08;;;;;;;0.40;0.40;;;28.30;54.60;;;;;;4137218;28;20045;-57
2023/08/08 10:29:33;;;;;;;0.40;0.40;;;28.50;52.40;;;;;;4135421;28;20089;-57
2023/08/08 10:32:07;;;;;;;0.43;0.43;;;28.10;51.40;;;;;;4134651;28;20046;-57
2023/08/08 10:34:38;;;;;;;0.40;0.40;;;28.30;50.60;;;;;;4136836;28;20287;-57
2023/08/08 10:36:58;;;;;;;0.40;0.40;;;28.00;50.90;;;;;;4135433;28;20405;-57
2023/08/08 10:39:21;;;;;;;0.30;0.30;;;27.90;58.70;;;;;;4136539;28;20053;-57
2023/08/08 10:41:46;;;;;;;0.40;0.40;;;28.60;56.10;;;;;;4121140;28;20045;-57
2023/08/08 10:44:09;;;;;;;0.43;0.30;;;28.80;56.90;;;;;;4136789;28;20085;-57
2023/08/08 10:46:31;;;;;;;0.40;0.40;;;28.70;54.40;;;;;;4136662;28;20093;-57
2023/08/08 10:48:52;;;;;;;0.40;0.40;;;28.60;52.20;;;;;;4137371;28;20053;-57
2023/08/08 10:51:14;;;;;;;0.40;0.40;;;28.80;55.90;;;;;;4136498;28;20089;-57
2023/08/08 10:53:36;;;;;;;0.40;0.40;;;29.00;53.40;;;;;;4136305;28;20102;-57
2023/08/08 10:56:01;;;;;;;0.32;0.32;;;29.20;51.90;;;;;;4137044;28;20273;-57
2023/08/08 10:58:21;;;;;;;0.40;0.40;;;29.20;55.30;;;;;;4135427;28;20315;-57
2023/08/08 11:00:41;;;;;;;0.40;0.40;;;29.10;54.30;;;;;;4136971;28;20040;-57
2023/08/08 11:03:04;;;;;;;0.40;0.40;;;29.10;54.00;;;;;;4135151;28;20065;-57
2023/08/08 11:05:27;;;;;;;0.40;0.40;;;29.00;53.50;;;;;;4134250;28;20070;-57
2023/08/08 11:07:47;;;;;;;;;;;29.20;58.80;;;;;;4138083;28;20045;-57
2023/08/08 11:10:07;;;;;;;0.40;0.40;;;28.80;50.90;;;;;;4135921;28;19933;-57
2023/08/08 11:12:27;;;;;;;0.30;0.30;;;28.60;53.30;;;;;;4137580;28;20280;-57
2023/08/08 11:14:47;;;;;;;0.40;0.40;;;28.70;52.50;;;;;;4138201;28;20102;-57
2023/08/08 11:17:07;;;;;;;0.40;0.40;;;28.50;51.30;;;;;;4139630;28;20050;-56
2023/08/08 11:19:30;;;;;;;0.40;0.40;;;28.50;53.10;;;;;;4132269;28;20053;-57
2023/08/08 11:21:50;;;;;;;0.30;0.30;;;28.60;52.70;;;;;;4133674;28;20317;-57
2023/08/08 11:24:11;;;;;;;0.40;0.40;;;28.80;54.90;;;;;;4136645;28;20073;-57
2023/08/08 11:26:32;;;;;;;0.40;0.40;;;28.80;50.70;;;;;;4140697;28;20248;-57
2023/08/08 11:28:52;;;;;;;0.40;0.40;;;28.80;56.90;;;;;;4135049;28;20085;-57
2023/08/08 11:31:13;;;;;;;0.40;0.40;;;29.60;56.50;;;;;;4134622;28;20150;-57
2023/08/08 11:33:33;;;;;;;0.40;0.40;;;30.10;54.70;;;;;;4136866;28;20368;-57
2023/08/08 11:35:53;;;;;;;0.30;0.30;;;29.60;55.40;;;;;;4135602;28;20092;-57
2023/08/08 11:38:15;;;;;;;0.40;0.40;;;29.80;54.10;;;;;;4133633;28;20065;-57
2023/08/08 11:40:34;;;;;;;0.40;0.40;;;29.60;53.30;;;;;;4135078;28;20372;-57
2023/08/08 11:42:59;;;;;;;0.40;0.40;;;29.60;52.50;;;;;;4133617;28;20053;-57
2023/08/08 11:45:19;;;;;;;0.40;0.40;;;29.30;53.60;;;;;;4135496;28;20065;-57
2023/08/08 11:47:40;;;;;;;0.30;0.30;;;29.40;53.70;;;;;;4134232;28;20053;-57
2023/08/08 11:50:00;;;;;;;0.38;0.38;;;29.50;52.30;;;;;;4135796;28;20371;-57
2023/08/08 11:52:20;;;;;;;0.68;0.40;;;29.70;53.40;;;;;;4135299;28;20085;-57
2023/08/08 11:54:41;;;;;;;0.35;0.35;;;29.50;54.30;;;;;;4132932;28;20240;-57
2023/08/08 11:57:01;;;;;;;0.32;0.32;;;29.70;50.40;;;;;;4135251;28;20084;-57
2023/08/08 11:59:21;;;;;;;0.30;0.30;;;29.80;54.20;;;;;;4134689;28;20089;-57
2023/08/08 12:01:43;;;;;;;0.40;0.40;;;29.30;51.40;;;;;;4136332;28;20075;-57
2023/08/08 12:04:08;;;;;;;0.30;0.30;;;29.40;53.40;;;;;;4135005;28;20147;-57
2023/08/08 12:06:29;;;;;;;0.40;0.40;;;29.80;55.30;;;;;;4134476;28;20089;-57
2023/08/08 12:08:50;;;;;;;0.35;0.35;;;29.90;50.90;;;;;;4135884;28;20564;-57
2023/08/08 12:11:11;;;;;;;0.40;0.40;;;30.00;51.10;;;;;;4135076;28;20129;-57
2023/08/08 12:13:32;;;;;;;1.08;0.30;;;30.20;50.70;;;;;;4136695;28;20081;-57
2023/08/08 12:15:53;;;;;;;0.30;0.30;;;30.00;49.10;;;;;;4136709;28;20054;-57
2023/08/08 12:18:18;;;;;;;0.30;0.30;;;29.90;51.90;;;;;;4135023;28;20146;-57